createdAt,value
2017-07-25T00:01:22.086Z,86.10
2017-07-25T00:03:50.423Z,86.10
2017-07-25T00:06:18.739Z,86.10
2017-07-25T00:08:47.074Z,86.20
2017-07-25T00:11:15.395Z,86.10
2017-07-25T00:13:43.732Z,86.20
2017-07-25T00:16:12.319Z,86.30
2017-07-25T00:18:40.659Z,86.20
2017-07-25T00:21:08.970Z,86.20
2017-07-25T00:23:37.289Z,86.30
2017-07-25T00:26:05.628Z,86.40
2017-07-25T00:28:33.941Z,86.60
2017-07-25T00:31:01.803Z,86.70
2017-07-25T00:33:30.120Z,86.70
2017-07-25T00:35:58.479Z,86.70
2017-07-25T00:38:26.793Z,86.70
2017-07-25T00:40:55.185Z,86.80
2017-07-25T00:43:23.526Z,87.10
2017-07-25T00:45:51.382Z,87.00
2017-07-25T00:48:19.719Z,86.90
2017-07-25T00:50:48.044Z,86.90
2017-07-25T00:53:16.391Z,86.90
2017-07-25T00:55:44.707Z,87.00
2017-07-25T00:58:13.020Z,87.10
2017-07-25T01:00:41.356Z,87.10
2017-07-25T01:03:09.669Z,87.10
2017-07-25T01:05:38.012Z,87.20
2017-07-25T01:08:06.328Z,87.30
2017-07-25T01:10:34.669Z,87.50
2017-07-25T01:13:02.982Z,87.50
2017-07-25T01:15:31.338Z,87.30
2017-07-25T01:17:59.652Z,87.40
2017-07-25T01:20:27.968Z,87.20
2017-07-25T01:22:56.340Z,87.00
2017-07-25T01:25:24.667Z,86.90
2017-07-25T01:27:53.006Z,87.60
2017-07-25T01:30:21.327Z,86.60
2017-07-25T01:32:49.665Z,86.50
2017-07-25T01:35:17.978Z,86.40
2017-07-25T01:37:46.321Z,86.40
2017-07-25T01:40:14.640Z,86.40
2017-07-25T01:42:42.955Z,86.40
2017-07-25T01:45:11.288Z,86.40
2017-07-25T01:47:39.609Z,86.50
2017-07-25T01:50:07.955Z,86.70
2017-07-25T01:52:36.273Z,86.70
2017-07-25T01:55:04.614Z,86.70
2017-07-25T01:57:32.929Z,86.50
2017-07-25T02:00:01.271Z,86.40
2017-07-25T02:02:29.585Z,86.50
2017-07-25T02:04:57.928Z,86.60
2017-07-25T02:07:26.244Z,86.80
2017-07-25T02:09:54.573Z,86.80
2017-07-25T02:12:22.912Z,86.70
2017-07-25T02:14:51.230Z,86.50
2017-07-25T02:17:19.563Z,86.60
2017-07-25T02:19:47.876Z,86.70
2017-07-25T02:22:16.220Z,87.00
2017-07-25T02:24:44.539Z,87.10
2017-07-25T02:27:12.877Z,87.00
2017-07-25T02:29:41.201Z,87.20
2017-07-25T02:32:09.546Z,86.40
2017-07-25T02:34:37.866Z,86.40
2017-07-25T02:37:06.212Z,86.50
2017-07-25T02:39:34.529Z,86.50
2017-07-25T02:42:02.848Z,86.60
2017-07-25T02:44:31.194Z,86.60
2017-07-25T02:46:59.515Z,86.20
2017-07-25T02:49:27.868Z,86.30
2017-07-25T02:51:55.421Z,86.20
2017-07-25T02:54:23.754Z,86.40
2017-07-25T02:56:52.072Z,86.20
2017-07-25T02:59:20.405Z,86.30
2017-07-25T03:01:48.715Z,86.40
2017-07-25T03:04:17.056Z,86.40
2017-07-25T03:06:45.369Z,86.60
2017-07-25T03:09:12.937Z,86.60
2017-07-25T03:11:41.251Z,86.90
2017-07-25T03:14:09.590Z,87.00
2017-07-25T03:16:37.907Z,86.70
2017-07-25T03:19:06.222Z,86.70
2017-07-25T03:21:34.564Z,86.80
2017-07-25T03:24:02.880Z,86.90
2017-07-25T03:26:31.213Z,87.10
2017-07-25T03:28:59.526Z,87.20
2017-07-25T03:31:27.857Z,87.20
2017-07-25T03:33:56.182Z,87.30
2017-07-25T03:36:24.523Z,87.40
2017-07-25T03:38:52.075Z,87.40
2017-07-25T03:41:20.413Z,87.80
2017-07-25T03:43:48.733Z,87.20
2017-07-25T03:46:17.072Z,87.10
2017-07-25T03:48:45.390Z,87.00
2017-07-25T03:51:13.732Z,87.20
2017-07-25T03:53:42.052Z,87.20
2017-07-25T03:56:10.400Z,87.20
2017-07-25T03:58:38.719Z,86.90
2017-07-25T04:01:07.077Z,86.90
2017-07-25T04:03:35.388Z,87.00
2017-07-25T04:06:03.704Z,87.00
2017-07-25T04:08:32.048Z,86.60
2017-07-25T04:11:00.362Z,86.40
2017-07-25T04:13:28.705Z,86.20
2017-07-25T04:15:57.023Z,86.10
2017-07-25T04:18:25.355Z,86.30
2017-07-25T04:20:53.663Z,86.20
2017-07-25T04:23:22.003Z,86.60
2017-07-25T04:25:49.560Z,87.40
2017-07-25T04:28:17.867Z,86.60
2017-07-25T04:30:46.203Z,86.60
2017-07-25T04:33:14.523Z,86.50
2017-07-25T04:35:42.872Z,86.60
2017-07-25T04:38:11.183Z,86.30
2017-07-25T04:40:39.529Z,87.30
2017-07-25T04:43:07.841Z,86.60
2017-07-25T04:45:36.197Z,86.70
2017-07-25T04:48:04.510Z,86.60
2017-07-25T04:50:32.828Z,86.30
2017-07-25T04:53:01.156Z,86.20
2017-07-25T04:55:29.477Z,86.00
2017-07-25T04:57:57.807Z,85.60
2017-07-25T05:00:26.115Z,85.30
2017-07-25T05:02:54.455Z,85.30
2017-07-25T05:05:22.768Z,85.30
2017-07-25T05:07:51.092Z,85.20
2017-07-25T05:10:19.409Z,85.10
2017-07-25T05:12:47.781Z,84.70
2017-07-25T05:15:16.101Z,84.90
2017-07-25T05:17:44.412Z,84.70
2017-07-25T05:20:12.746Z,84.90
2017-07-25T05:22:41.069Z,85.30
2017-07-25T05:25:09.400Z,84.90
2017-07-25T05:27:37.712Z,84.70
2017-07-25T05:30:06.044Z,84.80
2017-07-25T05:32:34.347Z,84.40
2017-07-25T05:35:02.678Z,84.40
2017-07-25T05:37:30.994Z,84.60
2017-07-25T05:39:59.348Z,84.60
2017-07-25T05:42:27.666Z,84.80
2017-07-25T05:44:55.980Z,84.80
2017-07-25T05:47:24.316Z,84.70
2017-07-25T05:49:52.623Z,84.50
2017-07-25T05:52:20.954Z,84.40
2017-07-25T05:54:49.264Z,84.50
2017-07-25T05:57:17.596Z,84.60
2017-07-25T05:59:45.920Z,84.80
2017-07-25T06:02:14.255Z,84.90
2017-07-25T06:04:42.566Z,84.60
2017-07-25T06:07:10.905Z,84.40
2017-07-25T06:09:39.219Z,84.30
2017-07-25T06:12:07.543Z,84.30
2017-07-25T06:14:35.872Z,84.30
2017-07-25T06:17:04.188Z,84.50
2017-07-25T06:19:32.519Z,84.40
2017-07-25T06:22:00.832Z,84.40
2017-07-25T06:24:29.159Z,84.20
2017-07-25T06:26:57.470Z,84.10
2017-07-25T06:29:25.799Z,84.10
2017-07-25T06:31:54.107Z,84.40
2017-07-25T06:34:22.428Z,83.10
2017-07-25T06:36:50.769Z,83.00
2017-07-25T06:39:19.091Z,83.20
2017-07-25T06:41:47.412Z,83.70
2017-07-25T06:44:15.716Z,84.00
2017-07-25T06:46:44.048Z,83.80
2017-07-25T06:49:12.351Z,83.00
2017-07-25T06:51:40.676Z,82.50
2017-07-25T06:54:08.978Z,82.00
2017-07-25T06:56:37.304Z,82.00
2017-07-25T06:59:05.610Z,81.60
2017-07-25T07:01:33.936Z,80.30
2017-07-25T07:04:02.252Z,79.50
2017-07-25T07:06:30.587Z,78.70
2017-07-25T07:08:58.900Z,78.60
2017-07-25T07:11:27.231Z,78.30
2017-07-25T07:13:55.536Z,78.10
2017-07-25T07:16:23.853Z,78.50
2017-07-25T07:18:52.191Z,79.20
2017-07-25T07:21:20.505Z,79.20
2017-07-25T07:23:48.830Z,78.90
2017-07-25T07:26:17.137Z,78.60
2017-07-25T07:28:45.470Z,78.90
2017-07-25T07:31:13.783Z,79.10
2017-07-25T07:33:42.112Z,78.90
2017-07-25T07:36:10.419Z,78.00
2017-07-25T07:38:38.761Z,77.20
2017-07-25T07:41:07.069Z,76.10
2017-07-25T07:43:35.385Z,76.30
2017-07-25T07:46:03.725Z,76.60
2017-07-25T07:48:32.040Z,76.60
2017-07-25T07:50:59.640Z,76.60
2017-07-25T07:53:27.948Z,76.40
2017-07-25T07:55:56.289Z,74.70
2017-07-25T07:58:24.592Z,73.80
2017-07-25T08:00:52.924Z,73.60
2017-07-25T08:03:20.469Z,73.50
2017-07-25T08:05:48.805Z,74.50
2017-07-25T08:08:17.118Z,74.70
2017-07-25T08:10:45.424Z,74.00
2017-07-25T08:13:13.751Z,73.80
2017-07-25T08:15:41.294Z,73.80
2017-07-25T08:18:09.627Z,73.10
2017-07-25T08:20:37.930Z,72.10
2017-07-25T08:23:06.255Z,72.40
2017-07-25T08:25:34.578Z,72.30
2017-07-25T08:28:02.908Z,72.00
2017-07-25T08:30:31.211Z,71.50
2017-07-25T08:32:59.542Z,71.00
2017-07-25T08:35:27.848Z,70.30
2017-07-25T08:37:56.193Z,69.90
2017-07-25T08:40:24.501Z,69.70
2017-07-25T08:42:52.814Z,69.70
2017-07-25T08:45:21.140Z,70.30
2017-07-25T08:47:49.449Z,71.20
2017-07-25T08:50:17.774Z,72.20
2017-07-25T08:52:46.077Z,72.20
2017-07-25T08:55:14.407Z,72.00
2017-07-25T08:57:42.721Z,71.20
2017-07-25T09:00:11.046Z,69.20
2017-07-25T09:02:39.355Z,68.50
2017-07-25T09:05:07.682Z,69.30
2017-07-25T09:07:35.992Z,70.30
2017-07-25T09:10:04.335Z,71.00
2017-07-25T09:12:32.648Z,71.70
2017-07-25T09:15:00.961Z,71.90
2017-07-25T09:17:29.291Z,71.20
2017-07-25T09:19:57.604Z,71.40
2017-07-25T09:22:26.096Z,71.30
2017-07-25T09:24:54.407Z,71.20
2017-07-25T09:27:22.745Z,69.50
2017-07-25T09:29:51.052Z,68.10
2017-07-25T09:32:19.388Z,66.70
2017-07-25T09:34:47.703Z,65.50
2017-07-25T09:37:16.031Z,65.20
2017-07-25T09:39:43.571Z,65.20
2017-07-25T09:42:11.904Z,66.50
2017-07-25T09:44:40.215Z,67.50
2017-07-25T09:47:08.567Z,68.70
2017-07-25T09:49:36.885Z,70.00
2017-07-25T09:52:05.200Z,70.40
2017-07-25T09:54:33.574Z,70.30
2017-07-25T09:57:01.884Z,72.10
2017-07-25T09:59:30.225Z,73.10
2017-07-25T10:01:58.529Z,73.80
2017-07-25T10:04:26.860Z,74.00
2017-07-25T10:06:55.172Z,74.00
2017-07-25T10:09:23.499Z,73.80
2017-07-25T10:11:51.814Z,73.40
2017-07-25T10:14:20.136Z,73.00
2017-07-25T10:16:48.444Z,73.30
2017-07-25T10:19:16.006Z,73.30
2017-07-25T10:21:44.400Z,73.60
2017-07-25T10:24:12.740Z,74.00
2017-07-25T10:26:41.049Z,73.70
2017-07-25T10:29:09.364Z,73.30
2017-07-25T10:31:37.711Z,72.50
2017-07-25T10:34:06.028Z,71.20
2017-07-25T10:36:34.376Z,70.80
2017-07-25T10:39:02.695Z,71.50
2017-07-25T10:41:30.260Z,71.50
2017-07-25T10:43:58.576Z,68.90
2017-07-25T10:46:26.923Z,68.70
2017-07-25T10:48:55.243Z,66.80
2017-07-25T10:51:23.584Z,67.20
2017-07-25T10:53:51.893Z,68.30
2017-07-25T10:56:20.236Z,68.30
2017-07-25T10:58:48.548Z,67.10
2017-07-25T11:01:16.911Z,65.90
2017-07-25T11:03:45.240Z,66.10
2017-07-25T11:06:14.075Z,67.10
2017-07-25T11:08:42.411Z,66.40
2017-07-25T11:11:10.724Z,66.90
2017-07-25T11:13:38.296Z,66.80
2017-07-25T11:16:06.612Z,69.00
2017-07-25T11:18:34.952Z,69.60
2017-07-25T11:21:03.268Z,70.80
2017-07-25T11:23:31.599Z,72.20
2017-07-25T11:25:59.908Z,73.00
2017-07-25T11:28:28.242Z,73.60
2017-07-25T11:30:56.548Z,74.50
2017-07-25T11:33:24.873Z,73.70
2017-07-25T11:35:53.203Z,73.70
2017-07-25T11:38:21.516Z,74.90
2017-07-25T11:40:49.851Z,75.80
2017-07-25T11:43:18.217Z,75.90
2017-07-25T11:45:46.556Z,76.00
2017-07-25T11:48:14.870Z,76.10
2017-07-25T11:50:43.205Z,77.00
2017-07-25T11:53:11.519Z,76.80
2017-07-25T11:55:39.856Z,77.10
2017-07-25T11:58:08.280Z,76.90
2017-07-25T12:00:36.608Z,76.30
2017-07-25T12:03:04.933Z,74.60
2017-07-25T12:05:33.239Z,73.30
2017-07-25T12:08:01.609Z,72.70
2017-07-25T12:10:29.916Z,72.30
2017-07-25T12:12:58.395Z,71.50
2017-07-25T12:15:25.938Z,71.50
2017-07-25T12:17:54.305Z,69.40
2017-07-25T12:20:22.611Z,68.70
2017-07-25T12:22:51.055Z,66.50
2017-07-25T12:25:19.368Z,64.60
2017-07-25T12:27:47.821Z,63.50
2017-07-25T12:30:15.363Z,63.50
2017-07-25T12:32:43.698Z,60.60
2017-07-25T12:35:12.007Z,59.50
2017-07-25T12:37:40.334Z,59.50
2017-07-25T12:40:08.695Z,58.90
2017-07-25T12:42:37.007Z,59.60
2017-07-25T12:45:05.440Z,60.20
2017-07-25T12:47:33.759Z,60.60
2017-07-25T12:50:02.110Z,62.00
2017-07-25T12:52:38.681Z,62.30
2017-07-25T12:55:07.008Z,62.60
2017-07-25T12:57:35.321Z,64.40
2017-07-25T13:00:03.663Z,65.80
2017-07-25T13:02:33.667Z,67.50
2017-07-25T13:05:01.977Z,70.50
2017-07-25T13:07:30.372Z,71.50
2017-07-25T13:09:58.683Z,73.10
2017-07-25T13:12:27.019Z,73.70
2017-07-25T13:14:54.569Z,73.60
2017-07-25T13:17:22.903Z,75.40
2017-07-25T13:19:51.217Z,75.50
2017-07-25T13:22:19.615Z,76.00
2017-07-25T13:24:47.153Z,76.00
2017-07-25T13:27:15.487Z,74.70
2017-07-25T13:29:43.917Z,73.70
2017-07-25T13:32:12.227Z,74.00
2017-07-25T13:34:40.579Z,74.10
2017-07-25T13:37:08.884Z,73.90
2017-07-25T13:39:37.211Z,74.10
2017-07-25T13:42:05.527Z,72.70
2017-07-25T13:44:33.855Z,72.40
2017-07-25T13:47:02.167Z,72.60
2017-07-25T13:49:30.503Z,73.10
2017-07-25T13:51:58.819Z,73.40
2017-07-25T13:54:27.132Z,74.00
2017-07-25T13:56:55.475Z,74.70
2017-07-25T13:59:23.802Z,75.40
2017-07-25T14:01:52.139Z,76.10
2017-07-25T14:04:20.447Z,75.90
2017-07-25T14:06:48.787Z,73.00
2017-07-25T14:09:17.099Z,71.00
2017-07-25T14:11:45.463Z,70.00
2017-07-25T14:14:13.777Z,69.40
2017-07-25T14:16:42.083Z,70.50
2017-07-25T14:19:10.415Z,69.20
2017-07-25T14:21:38.731Z,69.10
2017-07-25T14:24:07.058Z,69.80
2017-07-25T14:26:35.384Z,69.40
2017-07-25T14:29:03.710Z,69.10
2017-07-25T14:31:32.040Z,69.20
2017-07-25T14:34:00.371Z,69.40
2017-07-25T14:36:28.696Z,68.70
2017-07-25T14:38:57.061Z,69.10
2017-07-25T14:41:25.371Z,70.70
2017-07-25T14:43:53.714Z,71.60
2017-07-25T14:46:22.040Z,72.00
2017-07-25T14:48:50.359Z,72.80
2017-07-25T14:51:18.690Z,72.90
2017-07-25T14:53:47.007Z,73.40
2017-07-25T14:56:15.344Z,72.70
2017-07-25T14:58:43.655Z,73.40
2017-07-25T15:01:11.997Z,72.30
2017-07-25T15:03:40.316Z,71.50
2017-07-25T15:06:07.889Z,71.50
2017-07-25T15:08:36.207Z,71.40
2017-07-25T15:11:03.783Z,71.40
2017-07-25T15:13:32.099Z,73.00
2017-07-25T15:16:00.415Z,74.30
2017-07-25T15:18:28.744Z,74.60
2017-07-25T15:20:57.051Z,74.90
2017-07-25T15:23:25.379Z,75.50
2017-07-25T15:25:53.689Z,76.00
2017-07-25T15:28:22.031Z,76.20
2017-07-25T15:30:50.347Z,75.60
2017-07-25T15:33:17.963Z,75.50
2017-07-25T15:35:45.506Z,75.20
2017-07-25T15:38:13.844Z,74.90
2017-07-25T15:40:42.148Z,75.60
2017-07-25T15:43:10.482Z,75.50
2017-07-25T15:45:38.023Z,75.50
2017-07-25T15:48:06.352Z,75.50
2017-07-25T15:50:34.683Z,75.40
2017-07-25T15:53:02.255Z,75.30
2017-07-25T15:55:30.591Z,75.50
2017-07-25T15:57:58.904Z,75.30
2017-07-25T16:00:26.467Z,75.30
2017-07-25T16:02:54.790Z,74.90
2017-07-25T16:05:23.119Z,74.80
2017-07-25T16:07:51.432Z,75.10
2017-07-25T16:10:19.787Z,75.60
2017-07-25T16:12:48.098Z,75.60
2017-07-25T16:15:16.411Z,75.30
2017-07-25T16:17:44.743Z,75.30
2017-07-25T16:20:13.051Z,75.10
2017-07-25T16:22:41.384Z,74.80
2017-07-25T16:25:09.696Z,74.30
2017-07-25T16:27:38.030Z,74.70
2017-07-25T16:30:06.335Z,75.60
2017-07-25T16:32:33.906Z,75.60
2017-07-25T16:35:02.223Z,75.30
2017-07-25T16:37:30.568Z,75.60
2017-07-25T16:39:58.885Z,75.90
2017-07-25T16:42:27.248Z,76.30
2017-07-25T16:44:55.607Z,76.70
2017-07-25T16:47:23.957Z,77.20
2017-07-25T16:49:52.361Z,77.70
2017-07-25T16:52:20.675Z,76.70
2017-07-25T16:54:49.009Z,77.00
2017-07-25T16:57:17.319Z,77.40
2017-07-25T16:59:45.653Z,78.10
2017-07-25T17:02:13.972Z,78.40
2017-07-25T17:04:42.319Z,78.20
2017-07-25T17:07:10.643Z,79.00
2017-07-25T17:09:38.988Z,80.00
2017-07-25T17:12:07.307Z,80.60
2017-07-25T17:14:35.619Z,80.90
2017-07-25T17:17:03.967Z,81.30
2017-07-25T17:19:32.367Z,82.00
2017-07-25T17:22:00.697Z,82.50
2017-07-25T17:24:29.016Z,82.50
2017-07-25T17:26:57.349Z,82.50
2017-07-25T17:29:25.668Z,82.00
2017-07-25T17:31:53.231Z,82.00
2017-07-25T17:34:20.798Z,81.90
2017-07-25T17:36:49.136Z,82.30
2017-07-25T17:39:17.450Z,82.40
2017-07-25T17:41:45.772Z,82.70
2017-07-25T17:44:14.120Z,83.10
2017-07-25T17:46:42.442Z,82.80
2017-07-25T17:49:10.784Z,83.00
2017-07-25T17:51:39.133Z,82.80
2017-07-25T17:54:07.531Z,83.10
2017-07-25T17:56:35.895Z,83.00
2017-07-25T17:59:04.222Z,83.30
2017-07-25T18:01:32.540Z,83.60
2017-07-25T18:04:00.868Z,84.00
2017-07-25T18:06:29.191Z,84.40
2017-07-25T18:08:57.523Z,83.80
2017-07-25T18:11:25.844Z,83.70
2017-07-25T18:13:54.191Z,83.70
2017-07-25T18:16:22.508Z,83.70
2017-07-25T18:18:50.924Z,83.50
2017-07-25T18:21:19.307Z,83.10
2017-07-25T18:23:47.704Z,83.60
2017-07-25T18:26:16.076Z,83.50
2017-07-25T18:28:45.383Z,83.60
2017-07-25T18:31:14.244Z,83.50
2017-07-25T18:33:42.684Z,83.50
2017-07-25T18:36:11.060Z,83.50
2017-07-25T18:38:39.978Z,83.60
2017-07-25T18:41:08.393Z,83.00
2017-07-25T18:43:36.740Z,83.60
2017-07-25T18:46:05.134Z,84.00
2017-07-25T18:48:33.503Z,84.00
2017-07-25T18:51:01.936Z,84.20
2017-07-25T18:53:30.258Z,84.40
2017-07-25T18:55:58.693Z,84.50
2017-07-25T18:58:27.036Z,84.60
2017-07-25T19:00:55.415Z,84.00
2017-07-25T19:03:23.768Z,84.40
2017-07-25T19:05:52.119Z,84.70
2017-07-25T19:08:20.463Z,84.90
2017-07-25T19:10:48.805Z,84.80
2017-07-25T19:13:17.141Z,84.60
2017-07-25T19:15:45.647Z,84.20
2017-07-25T19:18:13.982Z,84.60
2017-07-25T19:20:42.307Z,84.40
2017-07-25T19:23:10.651Z,84.60
2017-07-25T19:25:38.959Z,84.60
2017-07-25T19:28:07.292Z,85.00
2017-07-25T19:30:35.599Z,85.00
2017-07-25T19:33:03.941Z,85.10
2017-07-25T19:35:32.285Z,85.30
2017-07-25T19:38:00.596Z,85.50
2017-07-25T19:40:28.938Z,85.30
2017-07-25T19:42:57.351Z,85.20
2017-07-25T19:45:25.683Z,85.60
2017-07-25T19:47:54.047Z,85.90
2017-07-25T19:50:22.396Z,86.10
2017-07-25T19:52:50.820Z,86.50
2017-07-25T19:55:19.163Z,86.50
2017-07-25T19:57:47.477Z,86.60
2017-07-25T20:00:15.812Z,86.70
2017-07-25T20:02:45.090Z,87.40
2017-07-25T20:05:13.407Z,86.80
2017-07-25T20:07:41.809Z,86.80
2017-07-25T20:10:10.118Z,87.10
2017-07-25T20:12:39.179Z,86.90
2017-07-25T20:15:07.867Z,87.20
2017-07-25T20:17:36.194Z,87.50
2017-07-25T20:20:04.663Z,87.70
2017-07-25T20:22:33.007Z,87.50
2017-07-25T20:25:01.323Z,87.50
2017-07-25T20:27:29.656Z,88.30
2017-07-25T20:29:57.968Z,87.10
2017-07-25T20:32:26.310Z,87.30
2017-07-25T20:34:53.853Z,87.20
2017-07-25T20:37:22.167Z,87.20
2017-07-25T20:39:50.503Z,87.30
2017-07-25T20:42:18.812Z,87.10
2017-07-25T20:44:47.135Z,87.20
2017-07-25T20:47:15.454Z,87.30
2017-07-25T20:49:43.047Z,87.30
2017-07-25T20:52:11.515Z,87.70
2017-07-25T20:54:39.839Z,87.90
2017-07-25T20:57:08.148Z,87.80
2017-07-25T20:59:36.471Z,88.10
2017-07-25T21:02:04.775Z,88.10
2017-07-25T21:04:33.100Z,88.10
2017-07-25T21:07:01.408Z,88.30
2017-07-25T21:09:29.742Z,88.30
2017-07-25T21:11:58.127Z,88.40
2017-07-25T21:14:26.467Z,88.50
2017-07-25T21:16:54.775Z,88.60
2017-07-25T21:19:23.160Z,88.50
2017-07-25T21:21:51.573Z,88.20
2017-07-25T21:24:19.879Z,88.10
2017-07-25T21:26:48.211Z,88.10
2017-07-25T21:29:16.522Z,87.80
2017-07-25T21:31:44.865Z,88.30
2017-07-25T21:34:13.173Z,87.50
2017-07-25T21:36:41.504Z,87.80
2017-07-25T21:39:09.812Z,87.80
2017-07-25T21:41:38.150Z,88.00
2017-07-25T21:44:06.460Z,88.10
2017-07-25T21:46:34.795Z,88.10
2017-07-25T21:49:03.119Z,88.10
2017-07-25T21:51:31.455Z,88.80
2017-07-25T21:53:59.767Z,88.20
2017-07-25T21:56:28.099Z,88.40
2017-07-25T21:58:56.432Z,88.70
2017-07-25T22:01:36.640Z,88.70
2017-07-25T22:04:16.871Z,88.80
2017-07-25T22:06:45.200Z,89.00
2017-07-25T22:09:13.510Z,89.50
2017-07-25T22:11:41.850Z,89.50
2017-07-25T22:14:10.173Z,89.40
2017-07-25T22:16:38.481Z,89.30
2017-07-25T22:19:06.812Z,89.30
2017-07-25T22:21:35.136Z,89.50
2017-07-25T22:24:03.473Z,89.40
2017-07-25T22:26:31.788Z,89.40
2017-07-25T22:29:00.124Z,89.40
2017-07-25T22:31:27.671Z,89.40
2017-07-25T22:33:56.007Z,89.80
2017-07-25T22:36:24.325Z,89.80
2017-07-25T22:38:52.696Z,89.80
2017-07-25T22:41:21.019Z,89.90
2017-07-25T22:43:48.571Z,89.80
2017-07-25T22:46:16.899Z,89.60
2017-07-25T22:48:45.235Z,89.40
2017-07-25T22:51:13.568Z,89.30
2017-07-25T22:53:41.883Z,89.30
2017-07-25T22:56:10.219Z,89.10
2017-07-25T22:58:38.523Z,89.20
2017-07-25T23:01:06.100Z,89.20
2017-07-25T23:03:34.415Z,89.00
2017-07-25T23:06:02.753Z,89.20
2017-07-25T23:08:31.073Z,89.30
2017-07-25T23:10:59.433Z,89.00
2017-07-25T23:13:27.744Z,89.00
2017-07-25T23:15:56.083Z,89.00
2017-07-25T23:18:24.411Z,89.20
2017-07-25T23:20:52.725Z,89.30
2017-07-25T23:23:21.057Z,89.30
2017-07-25T23:25:49.382Z,89.30
2017-07-25T23:28:17.711Z,89.20
2017-07-25T23:30:46.019Z,89.20
2017-07-25T23:33:14.347Z,89.20
2017-07-25T23:35:42.671Z,89.10
2017-07-25T23:38:11.020Z,89.20
2017-07-25T23:40:39.332Z,88.80
2017-07-25T23:43:07.647Z,88.80
2017-07-25T23:45:35.976Z,88.90
2017-07-25T23:48:04.291Z,88.80
2017-07-25T23:50:32.610Z,88.80
2017-07-25T23:53:00.916Z,88.70
2017-07-25T23:55:29.245Z,88.70
2017-07-25T23:57:57.556Z,88.90
